createdAt,value
2019-05-30T00:01:17.952Z,11.20
2019-05-30T00:03:46.435Z,11.10
2019-05-30T00:06:15.063Z,11.20
2019-05-30T00:08:43.736Z,11.20
2019-05-30T00:11:12.494Z,11.10
2019-05-30T00:13:41.159Z,11.10
2019-05-30T00:16:10.027Z,11.00
2019-05-30T00:18:38.495Z,11.00
2019-05-30T00:21:07.149Z,11.00
2019-05-30T00:23:35.694Z,11.00
2019-05-30T00:26:04.405Z,11.00
2019-05-30T00:28:32.949Z,11.00
2019-05-30T00:31:02.552Z,11.00
2019-05-30T00:33:31.488Z,10.90
2019-05-30T00:36:00.172Z,10.80
2019-05-30T00:38:29.770Z,10.80
2019-05-30T00:41:00.023Z,10.80
2019-05-30T00:43:29.604Z,10.70
2019-05-30T00:45:58.345Z,10.70
2019-05-30T00:48:27.025Z,10.70
2019-05-30T00:50:56.361Z,10.60
2019-05-30T00:53:25.263Z,10.60
2019-05-30T00:55:56.715Z,10.60
2019-05-30T00:58:27.319Z,10.60
2019-05-30T01:00:56.783Z,10.50
2019-05-30T01:03:25.613Z,10.50
2019-05-30T01:05:54.301Z,10.50
2019-05-30T01:08:23.058Z,10.40
2019-05-30T01:10:51.900Z,10.40
2019-05-30T01:13:20.632Z,10.30
2019-05-30T01:15:49.318Z,10.30
2019-05-30T01:18:18.032Z,10.30
2019-05-30T01:20:46.860Z,10.20
2019-05-30T01:23:15.471Z,10.30
2019-05-30T01:25:44.124Z,10.20
2019-05-30T01:28:12.721Z,10.20
2019-05-30T01:30:41.456Z,10.20
2019-05-30T01:33:09.815Z,10.10
2019-05-30T01:35:38.476Z,10.10
2019-05-30T01:38:08.113Z,10.10
2019-05-30T01:40:36.788Z,10.00
2019-05-30T01:43:06.437Z,10.00
2019-05-30T01:45:35.120Z,9.90
2019-05-30T01:48:04.670Z,9.80
2019-05-30T01:50:33.432Z,9.80
2019-05-30T01:53:02.679Z,9.80
2019-05-30T01:55:31.094Z,9.80
2019-05-30T01:58:03.252Z,9.80
2019-05-30T02:00:38.732Z,9.70
2019-05-30T02:03:09.486Z,9.70
2019-05-30T02:05:38.739Z,9.70
2019-05-30T02:08:07.469Z,9.70
2019-05-30T02:10:36.106Z,9.70
2019-05-30T02:13:05.551Z,9.60
2019-05-30T02:15:34.034Z,9.60
2019-05-30T02:18:05.615Z,9.60
2019-05-30T02:20:34.511Z,9.60
2019-05-30T02:23:06.190Z,9.60
2019-05-30T02:25:35.274Z,9.50
2019-05-30T02:28:06.266Z,9.60
2019-05-30T02:30:34.320Z,9.50
2019-05-30T02:33:05.136Z,9.40
2019-05-30T02:35:33.869Z,9.40
2019-05-30T02:38:03.070Z,9.40
2019-05-30T02:40:32.302Z,9.40
2019-05-30T02:43:03.676Z,9.40
2019-05-30T02:45:34.964Z,9.40
2019-05-30T02:48:05.358Z,9.40
2019-05-30T02:50:34.524Z,9.40
2019-05-30T02:53:03.830Z,9.40
2019-05-30T02:55:34.275Z,9.40
2019-05-30T02:58:06.076Z,9.40
2019-05-30T03:00:37.458Z,9.40
2019-05-30T03:03:07.378Z,9.30
2019-05-30T03:05:36.780Z,9.30
2019-05-30T03:08:09.301Z,9.30
2019-05-30T03:10:37.753Z,9.20
2019-05-30T03:13:08.122Z,9.20
2019-05-30T03:15:36.742Z,9.20
2019-05-30T03:18:08.003Z,9.10
2019-05-30T03:20:35.958Z,9.10
2019-05-30T03:23:05.823Z,9.20
2019-05-30T03:25:34.709Z,9.10
2019-05-30T03:28:05.317Z,9.10
2019-05-30T03:30:34.870Z,9.10
2019-05-30T03:33:17.386Z,9.10
2019-05-30T03:35:41.619Z,9.10
2019-05-30T03:38:05.814Z,9.10
2019-05-30T03:40:35.254Z,9.20
2019-05-30T03:43:06.025Z,9.20
2019-05-30T03:45:38.237Z,9.20
2019-05-30T03:48:13.604Z,9.30
2019-05-30T03:50:48.168Z,9.30
2019-05-30T03:53:17.066Z,9.30
2019-05-30T03:55:53.119Z,9.40
2019-05-30T03:58:50.041Z,9.40
2019-05-30T04:01:30.615Z,9.50
2019-05-30T04:04:16.665Z,9.50
2019-05-30T04:06:50.867Z,9.60
2019-05-30T04:09:25.192Z,9.60
2019-05-30T04:12:26.332Z,9.60
2019-05-30T04:15:02.677Z,9.70
2019-05-30T04:17:31.135Z,9.70
2019-05-30T04:19:59.802Z,9.70
2019-05-30T04:22:28.781Z,9.70
2019-05-30T04:24:57.705Z,9.80
2019-05-30T04:27:27.573Z,9.80
2019-05-30T04:29:56.363Z,9.80
2019-05-30T04:32:25.109Z,9.80
2019-05-30T04:34:53.429Z,9.90
2019-05-30T04:37:22.744Z,10.00
2019-05-30T04:39:53.174Z,10.00
2019-05-30T04:42:21.687Z,10.10
2019-05-30T04:44:50.432Z,10.10
2019-05-30T04:47:20.935Z,10.20
2019-05-30T04:49:49.490Z,10.20
2019-05-30T04:52:22.649Z,10.30
2019-05-30T04:54:49.686Z,10.30
2019-05-30T04:57:19.584Z,10.30
2019-05-30T04:59:51.074Z,10.30
2019-05-30T05:02:23.248Z,10.40
2019-05-30T05:04:52.098Z,10.50
2019-05-30T05:07:22.009Z,10.60
2019-05-30T05:09:51.014Z,10.60
2019-05-30T05:12:20.378Z,10.70
2019-05-30T05:14:48.996Z,10.80
2019-05-30T05:17:18.860Z,10.90
2019-05-30T05:19:47.925Z,10.90
2019-05-30T05:22:17.003Z,11.00
2019-05-30T05:24:46.039Z,11.00
2019-05-30T05:27:15.539Z,11.10
2019-05-30T05:29:44.545Z,11.10
2019-05-30T05:32:14.068Z,11.10
2019-05-30T05:34:43.423Z,11.20
2019-05-30T05:37:12.187Z,11.20
2019-05-30T05:39:41.071Z,11.30
2019-05-30T05:42:09.459Z,11.30
2019-05-30T05:44:38.496Z,11.40
2019-05-30T05:47:09.177Z,11.50
2019-05-30T05:49:39.236Z,11.50
2019-05-30T05:52:07.922Z,11.60
2019-05-30T05:54:36.446Z,11.60
2019-05-30T05:57:05.308Z,11.70
2019-05-30T05:59:36.136Z,11.70
2019-05-30T06:02:06.955Z,11.80
2019-05-30T06:04:37.522Z,11.90
2019-05-30T06:07:06.525Z,11.90
2019-05-30T06:09:34.854Z,12.00
2019-05-30T06:12:04.499Z,12.10
2019-05-30T06:14:33.524Z,12.10
2019-05-30T06:17:02.181Z,12.20
2019-05-30T06:19:45.545Z,12.20
2019-05-30T06:22:01.530Z,12.30
2019-05-30T06:24:31.122Z,12.30
2019-05-30T06:27:00.053Z,12.40
2019-05-30T06:29:29.926Z,12.60
2019-05-30T06:31:58.573Z,12.50
2019-05-30T06:34:38.043Z,12.60
2019-05-30T06:36:57.523Z,12.70
2019-05-30T06:39:27.601Z,12.70
2019-05-30T06:41:56.656Z,12.70
2019-05-30T06:44:26.017Z,12.80
2019-05-30T06:46:55.650Z,12.80
2019-05-30T06:49:24.721Z,12.80
2019-05-30T06:51:54.475Z,12.90
2019-05-30T06:54:24.695Z,13.00
2019-05-30T06:56:53.467Z,13.00
2019-05-30T06:59:23.387Z,13.10
2019-05-30T07:01:52.372Z,13.20
2019-05-30T07:04:25.092Z,13.30
2019-05-30T07:06:55.862Z,13.40
2019-05-30T07:09:24.916Z,13.40
2019-05-30T07:11:53.665Z,13.50
2019-05-30T07:14:23.041Z,13.60
2019-05-30T07:16:51.987Z,13.60
2019-05-30T07:19:20.997Z,13.70
2019-05-30T07:21:49.998Z,13.80
2019-05-30T07:24:18.567Z,13.80
2019-05-30T07:26:47.537Z,14.00
2019-05-30T07:29:16.388Z,14.10
2019-05-30T07:31:44.880Z,14.10
2019-05-30T07:34:14.020Z,14.30
2019-05-30T07:36:42.601Z,14.50
2019-05-30T07:39:11.738Z,14.70
2019-05-30T07:41:40.433Z,14.90
2019-05-30T07:44:09.070Z,15.20
2019-05-30T07:46:37.702Z,15.40
2019-05-30T07:49:06.432Z,15.60
2019-05-30T07:51:35.044Z,15.80
2019-05-30T07:54:05.487Z,16.00
2019-05-30T07:56:35.171Z,16.20
2019-05-30T07:59:04.438Z,16.60
2019-05-30T08:01:33.179Z,17.00
2019-05-30T08:04:02.482Z,17.30
2019-05-30T08:06:33.853Z,17.70
2019-05-30T08:09:06.307Z,18.00
2019-05-30T08:11:35.126Z,18.40
2019-05-30T08:14:03.802Z,18.60
2019-05-30T08:16:33.312Z,18.70
2019-05-30T08:19:02.281Z,18.90
2019-05-30T08:21:32.713Z,19.10
2019-05-30T08:24:01.495Z,19.20
2019-05-30T08:26:30.144Z,19.40
2019-05-30T08:28:59.157Z,19.50
2019-05-30T08:31:30.356Z,19.70
2019-05-30T08:33:59.015Z,19.80
2019-05-30T08:36:28.760Z,19.80
2019-05-30T08:38:57.381Z,19.90
2019-05-30T08:41:25.884Z,20.10
2019-05-30T08:43:54.552Z,20.10
2019-05-30T08:46:23.307Z,20.10
2019-05-30T08:48:52.350Z,20.10
2019-05-30T08:51:21.539Z,20.10
2019-05-30T08:53:49.970Z,20.10
2019-05-30T08:56:18.647Z,20.10
2019-05-30T08:58:47.401Z,20.20
2019-05-30T09:01:16.201Z,20.20
2019-05-30T09:03:46.147Z,20.10
2019-05-30T09:06:14.694Z,20.20
2019-05-30T09:08:46.281Z,20.40
2019-05-30T09:11:16.954Z,20.40
2019-05-30T09:13:46.765Z,20.60
2019-05-30T09:16:15.701Z,20.80
2019-05-30T09:18:45.292Z,20.90
2019-05-30T09:21:13.861Z,21.00
2019-05-30T09:23:43.949Z,21.10
2019-05-30T09:26:12.494Z,21.30
2019-05-30T09:28:42.206Z,21.40
2019-05-30T09:31:11.090Z,21.50
2019-05-30T09:33:40.926Z,21.60
2019-05-30T09:36:13.604Z,21.80
2019-05-30T09:38:43.506Z,22.00
2019-05-30T09:41:12.577Z,21.90
2019-05-30T09:43:42.849Z,22.10
2019-05-30T09:46:11.360Z,22.40
2019-05-30T09:48:42.042Z,22.50
2019-05-30T09:51:10.992Z,22.60
2019-05-30T09:53:41.074Z,22.80
2019-05-30T09:56:11.151Z,23.10
2019-05-30T09:58:42.250Z,23.10
2019-05-30T10:01:10.886Z,23.30
2019-05-30T10:03:39.351Z,23.50
2019-05-30T10:06:08.163Z,23.60
2019-05-30T10:08:37.161Z,24.00
2019-05-30T10:11:07.252Z,24.40
2019-05-30T10:13:37.856Z,24.70
2019-05-30T10:16:06.804Z,24.90
2019-05-30T10:18:35.771Z,24.90
2019-05-30T10:21:04.440Z,25.50
2019-05-30T10:23:32.861Z,26.00
2019-05-30T10:26:01.950Z,26.50
2019-05-30T10:28:30.542Z,26.90
2019-05-30T10:30:59.912Z,27.40
2019-05-30T10:33:29.023Z,27.90
2019-05-30T10:35:57.885Z,28.30
2019-05-30T10:38:26.500Z,28.70
2019-05-30T10:40:56.063Z,29.00
2019-05-30T10:43:25.072Z,29.50
2019-05-30T10:45:53.855Z,30.10
2019-05-30T10:48:22.794Z,30.80
2019-05-30T10:50:52.289Z,31.40
2019-05-30T10:53:21.150Z,32.00
2019-05-30T10:55:50.175Z,32.10
2019-05-30T10:58:18.808Z,32.10
2019-05-30T11:00:53.597Z,32.10
2019-05-30T11:03:24.290Z,32.20
2019-05-30T11:06:11.254Z,32.30
2019-05-30T11:08:42.416Z,32.40
2019-05-30T11:11:13.380Z,32.80
2019-05-30T11:13:43.956Z,32.60
2019-05-30T11:16:12.470Z,32.40
2019-05-30T11:18:41.457Z,32.40
2019-05-30T11:21:10.088Z,32.50
2019-05-30T11:23:38.864Z,32.30
2019-05-30T11:26:07.760Z,32.00
2019-05-30T11:28:36.811Z,31.80
2019-05-30T11:31:05.888Z,31.90
2019-05-30T11:33:34.504Z,31.60
2019-05-30T11:36:04.746Z,31.00
2019-05-30T11:38:33.397Z,30.80
2019-05-30T11:41:02.195Z,30.50
2019-05-30T11:43:30.827Z,30.90
2019-05-30T11:45:59.922Z,31.30
2019-05-30T11:48:30.464Z,31.40
2019-05-30T11:51:00.079Z,31.30
2019-05-30T11:53:29.695Z,31.00
2019-05-30T11:55:58.369Z,30.90
2019-05-30T11:58:27.284Z,30.80
2019-05-30T12:00:56.579Z,30.90
2019-05-30T12:03:29.044Z,30.80
2019-05-30T12:05:56.619Z,30.70
2019-05-30T12:08:25.293Z,30.10
2019-05-30T12:10:54.911Z,29.90
2019-05-30T12:13:25.415Z,30.00
2019-05-30T12:15:57.422Z,30.00
2019-05-30T12:18:25.815Z,30.20
2019-05-30T12:20:55.728Z,29.90
2019-05-30T12:23:24.199Z,29.70
2019-05-30T12:25:53.952Z,29.80
2019-05-30T12:28:23.160Z,29.80
2019-05-30T12:30:56.758Z,29.90
2019-05-30T12:33:22.357Z,29.90
2019-05-30T12:35:52.396Z,30.10
2019-05-30T12:38:21.052Z,30.10
2019-05-30T12:40:49.939Z,30.10
2019-05-30T12:43:18.909Z,30.10
2019-05-30T12:45:48.182Z,29.90
2019-05-30T12:48:16.730Z,29.80
2019-05-30T12:50:45.580Z,29.70
2019-05-30T12:53:14.097Z,29.80
2019-05-30T12:55:43.276Z,29.70
2019-05-30T12:58:12.336Z,29.30
2019-05-30T13:00:41.663Z,29.20
2019-05-30T13:03:12.142Z,29.20
2019-05-30T13:05:40.898Z,29.40
2019-05-30T13:08:20.568Z,29.30
2019-05-30T13:10:40.911Z,29.40
2019-05-30T13:13:09.625Z,29.50
2019-05-30T13:15:40.513Z,29.50
2019-05-30T13:18:11.014Z,29.40
2019-05-30T13:20:39.454Z,29.10
2019-05-30T13:23:08.102Z,29.00
2019-05-30T13:25:37.108Z,29.00
2019-05-30T13:28:08.369Z,28.90
2019-05-30T13:30:37.029Z,28.80
2019-05-30T13:33:06.829Z,28.70
2019-05-30T13:35:35.527Z,28.50
2019-05-30T13:38:05.284Z,28.40
2019-05-30T13:40:34.227Z,28.20
2019-05-30T13:43:03.971Z,28.10
2019-05-30T13:45:33.329Z,28.00
2019-05-30T13:48:02.707Z,27.80
2019-05-30T13:50:31.287Z,27.50
2019-05-30T13:53:00.910Z,27.40
2019-05-30T13:55:29.823Z,27.30
2019-05-30T13:57:59.528Z,27.30
2019-05-30T14:00:28.919Z,27.30
2019-05-30T14:02:58.086Z,27.30
2019-05-30T14:05:28.267Z,27.40
2019-05-30T14:07:57.268Z,27.40
2019-05-30T14:10:26.018Z,27.60
2019-05-30T14:12:54.845Z,27.90
2019-05-30T14:15:23.781Z,27.90
2019-05-30T14:17:56.219Z,27.80
2019-05-30T14:20:27.030Z,27.80
2019-05-30T14:22:56.502Z,28.00
2019-05-30T14:25:25.566Z,28.20
2019-05-30T14:27:54.167Z,28.40
2019-05-30T14:30:24.175Z,28.50
2019-05-30T14:32:52.854Z,28.70
2019-05-30T14:35:21.768Z,28.80
2019-05-30T14:37:50.493Z,28.90
2019-05-30T14:40:19.510Z,28.90
2019-05-30T14:42:48.052Z,28.90
2019-05-30T14:45:17.971Z,28.90
2019-05-30T14:47:46.804Z,28.60
2019-05-30T14:50:17.655Z,28.50
2019-05-30T14:52:47.067Z,28.40
2019-05-30T14:55:17.245Z,28.40
2019-05-30T14:57:45.489Z,28.40
2019-05-30T15:00:15.542Z,28.40
2019-05-30T15:02:44.087Z,28.50
2019-05-30T15:05:13.773Z,28.50
2019-05-30T15:07:42.672Z,28.50
2019-05-30T15:10:13.756Z,28.60
2019-05-30T15:12:42.217Z,28.60
2019-05-30T15:15:14.681Z,28.50
2019-05-30T15:17:42.316Z,28.40
2019-05-30T15:20:14.178Z,28.20
2019-05-30T15:22:44.665Z,28.10
2019-05-30T15:25:17.473Z,28.00
2019-05-30T15:27:44.193Z,27.70
2019-05-30T15:30:14.785Z,27.60
2019-05-30T15:32:43.894Z,27.40
2019-05-30T15:35:15.535Z,27.40
2019-05-30T15:37:44.594Z,27.50
2019-05-30T15:40:15.169Z,27.30
2019-05-30T15:42:43.614Z,27.30
2019-05-30T15:45:14.005Z,27.50
2019-05-30T15:47:42.361Z,27.40
2019-05-30T15:50:13.547Z,27.50
2019-05-30T15:52:42.725Z,27.40
2019-05-30T15:55:13.122Z,27.40
2019-05-30T15:57:41.730Z,27.30
2019-05-30T16:00:12.150Z,27.40
2019-05-30T16:02:41.274Z,27.40
2019-05-30T16:05:10.682Z,27.20
2019-05-30T16:07:39.956Z,27.10
2019-05-30T16:10:11.092Z,27.10
2019-05-30T16:12:39.584Z,27.10
2019-05-30T16:15:09.194Z,27.00
2019-05-30T16:17:38.207Z,27.10
2019-05-30T16:20:07.222Z,27.00
2019-05-30T16:22:37.859Z,27.00
2019-05-30T16:25:07.875Z,27.10
2019-05-30T16:27:36.349Z,27.00
2019-05-30T16:30:06.776Z,26.90
2019-05-30T16:32:34.741Z,26.90
2019-05-30T16:35:03.915Z,26.80
2019-05-30T16:37:33.252Z,26.50
2019-05-30T16:40:06.402Z,26.30
2019-05-30T16:42:32.706Z,26.30
2019-05-30T16:45:01.504Z,26.40
2019-05-30T16:47:30.016Z,26.50
2019-05-30T16:49:58.558Z,26.40
2019-05-30T16:52:27.530Z,26.50
2019-05-30T16:54:56.479Z,26.40
2019-05-30T16:57:26.728Z,26.50
2019-05-30T16:59:55.418Z,26.50
2019-05-30T17:02:24.085Z,26.60
2019-05-30T17:04:52.753Z,26.50
2019-05-30T17:07:21.498Z,26.40
2019-05-30T17:09:50.195Z,26.30
2019-05-30T17:12:21.751Z,26.30
2019-05-30T17:14:50.555Z,26.30
2019-05-30T17:17:19.953Z,26.20
2019-05-30T17:19:48.540Z,26.10
2019-05-30T17:22:16.992Z,26.00
2019-05-30T17:24:47.446Z,25.90
2019-05-30T17:27:19.133Z,25.80
2019-05-30T17:29:48.029Z,25.80
2019-05-30T17:32:17.787Z,25.80
2019-05-30T17:34:46.202Z,25.70
2019-05-30T17:37:14.912Z,25.60
2019-05-30T17:39:43.923Z,25.50
2019-05-30T17:42:12.848Z,25.50
2019-05-30T17:44:41.890Z,25.50
2019-05-30T17:47:10.798Z,25.30
2019-05-30T17:49:39.266Z,25.30
2019-05-30T17:52:07.898Z,25.20
2019-05-30T17:54:36.626Z,25.20
2019-05-30T17:57:05.846Z,25.10
2019-05-30T17:59:34.634Z,25.00
2019-05-30T18:02:03.659Z,25.00
2019-05-30T18:04:32.291Z,24.90
2019-05-30T18:07:01.595Z,24.70
2019-05-30T18:09:31.422Z,24.70
2019-05-30T18:11:59.904Z,24.50
2019-05-30T18:14:31.502Z,24.40
2019-05-30T18:17:01.107Z,24.30
2019-05-30T18:19:29.771Z,24.40
2019-05-30T18:21:58.316Z,24.30
2019-05-30T18:24:27.739Z,24.30
2019-05-30T18:26:58.158Z,24.20
2019-05-30T18:29:30.119Z,23.80
2019-05-30T18:31:58.693Z,23.70
2019-05-30T18:34:28.376Z,23.30
2019-05-30T18:36:57.495Z,23.30
2019-05-30T18:39:26.711Z,23.10
2019-05-30T18:41:55.180Z,23.10
2019-05-30T18:44:25.733Z,23.10
2019-05-30T18:46:54.721Z,23.10
2019-05-30T18:49:23.706Z,23.00
2019-05-30T18:51:52.245Z,22.90
2019-05-30T18:54:21.135Z,22.80
2019-05-30T18:56:50.363Z,22.70
2019-05-30T18:59:19.376Z,22.70
2019-05-30T19:01:47.770Z,22.60
2019-05-30T19:04:17.919Z,22.50
2019-05-30T19:06:46.250Z,22.40
2019-05-30T19:09:15.209Z,22.30
2019-05-30T19:11:44.111Z,22.20
2019-05-30T19:14:12.739Z,22.20
2019-05-30T19:16:43.540Z,22.10
2019-05-30T19:19:11.982Z,22.10
2019-05-30T19:21:41.055Z,22.00
2019-05-30T19:24:09.645Z,21.90
2019-05-30T19:26:38.291Z,21.90
2019-05-30T19:29:08.845Z,21.80
2019-05-30T19:31:39.377Z,21.70
2019-05-30T19:34:08.393Z,21.60
2019-05-30T19:36:37.353Z,21.60
2019-05-30T19:39:06.877Z,21.50
2019-05-30T19:41:46.006Z,21.50
2019-05-30T19:44:06.162Z,21.40
2019-05-30T19:46:34.575Z,21.30
2019-05-30T19:49:05.089Z,21.20
2019-05-30T19:51:35.085Z,21.20
2019-05-30T19:54:04.236Z,21.10
2019-05-30T19:56:33.346Z,21.00
2019-05-30T19:59:03.003Z,20.90
2019-05-30T20:01:31.932Z,20.80
2019-05-30T20:04:02.323Z,20.80
2019-05-30T20:06:30.842Z,20.70
2019-05-30T20:08:59.806Z,20.80
2019-05-30T20:11:28.324Z,20.70
2019-05-30T20:13:56.829Z,20.60
2019-05-30T20:16:25.258Z,20.60
2019-05-30T20:18:54.860Z,20.50
2019-05-30T20:21:23.891Z,20.50
2019-05-30T20:23:58.340Z,20.40
2019-05-30T20:26:24.013Z,20.40
2019-05-30T20:28:52.366Z,20.30
2019-05-30T20:31:23.238Z,20.30
2019-05-30T20:33:54.083Z,20.20
2019-05-30T20:36:22.406Z,20.20
2019-05-30T20:38:51.143Z,20.10
2019-05-30T20:41:19.788Z,20.00
2019-05-30T20:43:48.490Z,19.90
2019-05-30T20:46:23.170Z,19.80
2019-05-30T20:48:47.684Z,19.80
2019-05-30T20:51:21.113Z,19.80
2019-05-30T20:53:47.650Z,19.60
2019-05-30T20:56:16.628Z,19.60
2019-05-30T20:58:45.805Z,19.60
2019-05-30T21:01:14.303Z,19.50
2019-05-30T21:03:43.820Z,19.50
2019-05-30T21:06:13.391Z,19.50
2019-05-30T21:08:43.188Z,19.40
2019-05-30T21:11:13.035Z,19.30
2019-05-30T21:13:44.304Z,19.20
2019-05-30T21:16:15.006Z,19.20
2019-05-30T21:18:46.003Z,19.10
2019-05-30T21:21:16.306Z,19.10
2019-05-30T21:23:45.094Z,19.00
2019-05-30T21:26:13.727Z,19.00
2019-05-30T21:28:43.121Z,19.00
2019-05-30T21:31:11.656Z,18.90
2019-05-30T21:33:43.821Z,18.80
2019-05-30T21:36:14.498Z,18.80
2019-05-30T21:38:44.011Z,18.70
2019-05-30T21:41:12.586Z,18.70
2019-05-30T21:43:40.937Z,18.60
2019-05-30T21:46:09.989Z,18.50
2019-05-30T21:48:38.840Z,18.50
2019-05-30T21:51:07.338Z,18.50
2019-05-30T21:53:36.077Z,18.40
2019-05-30T21:56:07.834Z,18.40
2019-05-30T21:58:36.799Z,18.30
2019-05-30T22:01:33.344Z,18.20
2019-05-30T22:04:02.605Z,18.20
2019-05-30T22:06:32.012Z,18.10
2019-05-30T22:09:03.274Z,18.10
2019-05-30T22:11:31.019Z,18.10
2019-05-30T22:13:59.717Z,18.10
2019-05-30T22:16:28.333Z,18.00
2019-05-30T22:18:57.005Z,18.00
2019-05-30T22:21:26.292Z,18.00
2019-05-30T22:23:55.223Z,17.90
2019-05-30T22:26:23.647Z,17.80
2019-05-30T22:28:52.850Z,17.80
2019-05-30T22:31:21.355Z,17.70
2019-05-30T22:33:53.147Z,17.40
2019-05-30T22:36:23.666Z,17.40
2019-05-30T22:38:53.212Z,17.40
2019-05-30T22:41:21.926Z,17.40
2019-05-30T22:43:50.646Z,17.40
2019-05-30T22:46:19.413Z,17.30
2019-05-30T22:48:48.412Z,17.30
2019-05-30T22:51:17.180Z,17.20
2019-05-30T22:53:46.981Z,17.20
2019-05-30T22:56:15.896Z,17.10
2019-05-30T22:58:45.537Z,17.00
2019-05-30T23:01:14.221Z,16.90
2019-05-30T23:03:42.877Z,16.90
2019-05-30T23:06:11.558Z,16.90
2019-05-30T23:08:40.217Z,16.80
2019-05-30T23:11:08.969Z,16.60
2019-05-30T23:13:40.470Z,16.70
2019-05-30T23:16:08.177Z,16.70
2019-05-30T23:18:36.842Z,16.60
2019-05-30T23:21:05.457Z,16.60
2019-05-30T23:23:35.109Z,16.60
2019-05-30T23:26:04.741Z,16.50
2019-05-30T23:28:33.221Z,16.50
2019-05-30T23:31:02.173Z,16.50
2019-05-30T23:33:30.795Z,16.50
2019-05-30T23:36:04.413Z,16.40
2019-05-30T23:38:34.945Z,16.50
2019-05-30T23:41:05.130Z,16.40
2019-05-30T23:43:33.543Z,16.40
2019-05-30T23:46:02.539Z,16.40
2019-05-30T23:48:30.949Z,16.30
2019-05-30T23:51:00.064Z,16.30
2019-05-30T23:53:30.416Z,16.30
2019-05-30T23:55:58.767Z,16.30
2019-05-30T23:58:27.250Z,16.20
